Terminal Aerodrome Forecast
Issued by NWS Omaha/Valley, NE

Home | Current Version | Previous Version | Text Only | Print | Product List | Glossary On
Versions: 1 2 3 4 5 6 7 8 9 10 11 12 13 14 15 16 17 18
000
FTUS43 KOAX 222334
TAFOFK
TAF
KOFK 222334Z 2300/2324 15005KT 6SM BR OVC008
      TEMPO 2300/2304 1SM -SN BR OVC005
     FM230400 00000KT 3SM BR VCSH OVC015
     FM230500 VRB03KT P6SM BKN020
     FM230800 26005KT P6SM BKN060=

USA.gov is the U.S. government's official web portal to all federal, state and local government web resources and services.